sensor_id;sensor_type;location;lat;lon;timestamp;temperature;humidity
17697;DHT22;8967;47.984;7.842;2023-05-16T00:02:22;14.00;99.90
17697;DHT22;8967;47.984;7.842;2023-05-16T00:04:49;14.10;99.90
17697;DHT22;8967;47.984;7.842;2023-05-16T00:07:16;14.10;99.90
17697;DHT22;8967;47.984;7.842;2023-05-16T00:09:43;14.10;99.90
17697;DHT22;8967;47.984;7.842;2023-05-16T00:12:12;14.10;99.90
17697;DHT22;8967;47.984;7.842;2023-05-16T00:14:39;14.00;99.90
17697;DHT22;8967;47.984;7.842;2023-05-16T00:17:09;14.10;99.90
17697;DHT22;8967;47.984;7.842;2023-05-16T00:19:38;14.10;99.90
17697;DHT22;8967;47.984;7.842;2023-05-16T00:22:06;14.10;99.90
17697;DHT22;8967;47.984;7.842;2023-05-16T00:24:33;14.10;99.90
17697;DHT22;8967;47.984;7.842;2023-05-16T00:27:00;14.10;99.90
17697;DHT22;8967;47.984;7.842;2023-05-16T00:29:30;14.10;99.90
17697;DHT22;8967;47.984;7.842;2023-05-16T00:31:57;14.10;99.90
17697;DHT22;8967;47.984;7.842;2023-05-16T00:34:24;14.10;99.90
17697;DHT22;8967;47.984;7.842;2023-05-16T00:36:53;14.10;99.90
17697;DHT22;8967;47.984;7.842;2023-05-16T00:39:20;14.10;99.90
17697;DHT22;8967;47.984;7.842;2023-05-16T00:41:46;14.10;99.90
17697;DHT22;8967;47.984;7.842;2023-05-16T00:44:13;14.10;99.90
17697;DHT22;8967;47.984;7.842;2023-05-16T00:46:42;14.10;99.90
17697;DHT22;8967;47.984;7.842;2023-05-16T00:49:10;14.10;99.90
17697;DHT22;8967;47.984;7.842;2023-05-16T00:51:38;14.10;99.90
17697;DHT22;8967;47.984;7.842;2023-05-16T00:54:06;14.10;99.90
17697;DHT22;8967;47.984;7.842;2023-05-16T00:56:33;14.10;99.90
17697;DHT22;8967;47.984;7.842;2023-05-16T00:59:01;14.10;99.90
17697;DHT22;8967;47.984;7.842;2023-05-16T01:01:28;14.10;99.90
17697;DHT22;8967;47.984;7.842;2023-05-16T01:03:55;14.10;99.90
17697;DHT22;8967;47.984;7.842;2023-05-16T01:06:22;14.10;99.90
17697;DHT22;8967;47.984;7.842;2023-05-16T01:08:49;14.10;99.90
17697;DHT22;8967;47.984;7.842;2023-05-16T01:11:23;14.10;99.90
17697;DHT22;8967;47.984;7.842;2023-05-16T01:13:58;14.10;99.90
17697;DHT22;8967;47.984;7.842;2023-05-16T01:16:35;14.10;99.90
17697;DHT22;8967;47.984;7.842;2023-05-16T01:19:13;14.10;99.90
17697;DHT22;8967;47.984;7.842;2023-05-16T01:21:48;14.10;99.90
17697;DHT22;8967;47.984;7.842;2023-05-16T01:24:22;14.20;99.90
17697;DHT22;8967;47.984;7.842;2023-05-16T01:26:55;14.20;99.90
17697;DHT22;8967;47.984;7.842;2023-05-16T01:29:23;14.20;99.90
17697;DHT22;8967;47.984;7.842;2023-05-16T01:31:50;14.20;99.90
17697;DHT22;8967;47.984;7.842;2023-05-16T01:34:17;14.20;99.90
17697;DHT22;8967;47.984;7.842;2023-05-16T01:36:51;14.20;99.90
17697;DHT22;8967;47.984;7.842;2023-05-16T01:39:29;14.20;99.90
17697;DHT22;8967;47.984;7.842;2023-05-16T01:42:04;14.20;99.90
17697;DHT22;8967;47.984;7.842;2023-05-16T01:44:36;14.20;99.90
17697;DHT22;8967;47.984;7.842;2023-05-16T01:47:12;14.20;99.90
17697;DHT22;8967;47.984;7.842;2023-05-16T01:49:45;14.20;99.90
17697;DHT22;8967;47.984;7.842;2023-05-16T01:52:16;14.20;99.90
17697;DHT22;8967;47.984;7.842;2023-05-16T01:54:47;14.20;99.90
17697;DHT22;8967;47.984;7.842;2023-05-16T01:57:16;14.20;99.90
17697;DHT22;8967;47.984;7.842;2023-05-16T01:59:44;14.20;99.90
17697;DHT22;8967;47.984;7.842;2023-05-16T02:02:17;14.20;99.90
17697;DHT22;8967;47.984;7.842;2023-05-16T02:04:44;14.20;99.90
17697;DHT22;8967;47.984;7.842;2023-05-16T02:07:13;14.20;99.90
17697;DHT22;8967;47.984;7.842;2023-05-16T02:09:41;14.20;99.90
17697;DHT22;8967;47.984;7.842;2023-05-16T02:12:07;14.20;99.90
17697;DHT22;8967;47.984;7.842;2023-05-16T02:14:36;14.20;99.90
17697;DHT22;8967;47.984;7.842;2023-05-16T02:17:03;14.20;99.90
17697;DHT22;8967;47.984;7.842;2023-05-16T02:19:30;14.20;99.90
17697;DHT22;8967;47.984;7.842;2023-05-16T02:21:56;14.20;99.90
17697;DHT22;8967;47.984;7.842;2023-05-16T02:24:23;14.20;99.90
17697;DHT22;8967;47.984;7.842;2023-05-16T02:26:50;14.10;99.90
17697;DHT22;8967;47.984;7.842;2023-05-16T02:29:17;14.10;99.90
17697;DHT22;8967;47.984;7.842;2023-05-16T02:31:45;14.10;99.90
17697;DHT22;8967;47.984;7.842;2023-05-16T02:34:12;14.10;99.90
17697;DHT22;8967;47.984;7.842;2023-05-16T02:36:41;14.20;99.90
17697;DHT22;8967;47.984;7.842;2023-05-16T02:39:08;14.20;99.90
17697;DHT22;8967;47.984;7.842;2023-05-16T02:41:36;14.20;99.90
17697;DHT22;8967;47.984;7.842;2023-05-16T02:44:03;14.20;99.90
17697;DHT22;8967;47.984;7.842;2023-05-16T02:46:32;14.20;99.90
17697;DHT22;8967;47.984;7.842;2023-05-16T02:49:00;14.20;99.90
17697;DHT22;8967;47.984;7.842;2023-05-16T02:51:28;14.10;99.90
17697;DHT22;8967;47.984;7.842;2023-05-16T02:53:57;14.20;99.90
17697;DHT22;8967;47.984;7.842;2023-05-16T02:56:25;14.10;99.90
17697;DHT22;8967;47.984;7.842;2023-05-16T02:58:53;14.20;99.90
17697;DHT22;8967;47.984;7.842;2023-05-16T03:01:20;14.20;99.90
17697;DHT22;8967;47.984;7.842;2023-05-16T03:03:47;14.10;99.90
17697;DHT22;8967;47.984;7.842;2023-05-16T03:06:18;14.10;99.90
17697;DHT22;8967;47.984;7.842;2023-05-16T03:08:44;14.10;99.90
17697;DHT22;8967;47.984;7.842;2023-05-16T03:11:11;14.10;99.90
17697;DHT22;8967;47.984;7.842;2023-05-16T03:13:39;14.10;99.90
17697;DHT22;8967;47.984;7.842;2023-05-16T03:16:06;14.10;99.90
17697;DHT22;8967;47.984;7.842;2023-05-16T03:18:34;14.10;99.90
17697;DHT22;8967;47.984;7.842;2023-05-16T03:21:01;14.10;99.90
17697;DHT22;8967;47.984;7.842;2023-05-16T03:23:29;14.10;99.90
17697;DHT22;8967;47.984;7.842;2023-05-16T03:25:56;14.10;99.90
17697;DHT22;8967;47.984;7.842;2023-05-16T03:28:24;14.00;99.90
17697;DHT22;8967;47.984;7.842;2023-05-16T03:30:54;14.00;99.90
17697;DHT22;8967;47.984;7.842;2023-05-16T03:33:20;14.00;99.90
17697;DHT22;8967;47.984;7.842;2023-05-16T03:35:48;14.00;99.90
17697;DHT22;8967;47.984;7.842;2023-05-16T03:38:15;14.00;99.90
17697;DHT22;8967;47.984;7.842;2023-05-16T03:40:44;14.00;99.90
17697;DHT22;8967;47.984;7.842;2023-05-16T03:43:11;14.00;99.90
17697;DHT22;8967;47.984;7.842;2023-05-16T03:45:38;14.00;99.90
17697;DHT22;8967;47.984;7.842;2023-05-16T03:48:05;14.00;99.90
17697;DHT22;8967;47.984;7.842;2023-05-16T03:50:32;14.00;99.90
17697;DHT22;8967;47.984;7.842;2023-05-16T03:52:58;13.90;99.90
17697;DHT22;8967;47.984;7.842;2023-05-16T03:55:25;13.90;99.90
17697;DHT22;8967;47.984;7.842;2023-05-16T03:57:54;13.90;99.90
17697;DHT22;8967;47.984;7.842;2023-05-16T04:00:20;13.90;99.90
17697;DHT22;8967;47.984;7.842;2023-05-16T04:02:47;13.90;99.90
17697;DHT22;8967;47.984;7.842;2023-05-16T04:05:14;13.90;99.90
17697;DHT22;8967;47.984;7.842;2023-05-16T04:07:41;13.90;99.90
17697;DHT22;8967;47.984;7.842;2023-05-16T04:10:09;13.80;99.90
17697;DHT22;8967;47.984;7.842;2023-05-16T04:12:36;13.90;99.90
17697;DHT22;8967;47.984;7.842;2023-05-16T04:15:07;13.90;99.90
17697;DHT22;8967;47.984;7.842;2023-05-16T04:17:34;13.80;99.90
17697;DHT22;8967;47.984;7.842;2023-05-16T04:20:01;13.80;99.90
17697;DHT22;8967;47.984;7.842;2023-05-16T04:22:31;13.80;99.90
17697;DHT22;8967;47.984;7.842;2023-05-16T04:24:58;13.70;99.90
17697;DHT22;8967;47.984;7.842;2023-05-16T04:27:25;13.70;99.90
17697;DHT22;8967;47.984;7.842;2023-05-16T04:29:52;13.70;99.90
17697;DHT22;8967;47.984;7.842;2023-05-16T04:32:20;13.60;99.90
17697;DHT22;8967;47.984;7.842;2023-05-16T04:34:48;13.60;99.90
17697;DHT22;8967;47.984;7.842;2023-05-16T04:37:17;13.60;99.90
17697;DHT22;8967;47.984;7.842;2023-05-16T04:39:45;13.60;99.90
17697;DHT22;8967;47.984;7.842;2023-05-16T04:42:12;13.60;99.90
17697;DHT22;8967;47.984;7.842;2023-05-16T04:44:41;13.60;99.90
17697;DHT22;8967;47.984;7.842;2023-05-16T04:47:08;13.60;99.90
17697;DHT22;8967;47.984;7.842;2023-05-16T04:49:36;13.50;99.90
17697;DHT22;8967;47.984;7.842;2023-05-16T04:52:04;13.60;99.90
17697;DHT22;8967;47.984;7.842;2023-05-16T04:54:33;13.50;99.90
17697;DHT22;8967;47.984;7.842;2023-05-16T04:56:59;13.50;99.90
17697;DHT22;8967;47.984;7.842;2023-05-16T04:59:26;13.50;99.90
17697;DHT22;8967;47.984;7.842;2023-05-16T05:01:53;13.50;99.90
17697;DHT22;8967;47.984;7.842;2023-05-16T05:04:23;13.50;99.90
17697;DHT22;8967;47.984;7.842;2023-05-16T05:06:51;13.50;99.90
17697;DHT22;8967;47.984;7.842;2023-05-16T05:09:18;13.50;99.90
17697;DHT22;8967;47.984;7.842;2023-05-16T05:11:48;13.60;99.90
17697;DHT22;8967;47.984;7.842;2023-05-16T05:14:15;13.60;99.90
17697;DHT22;8967;47.984;7.842;2023-05-16T05:16:42;13.60;99.90
17697;DHT22;8967;47.984;7.842;2023-05-16T05:19:09;13.60;99.90
17697;DHT22;8967;47.984;7.842;2023-05-16T05:21:36;13.60;99.90
17697;DHT22;8967;47.984;7.842;2023-05-16T05:24:05;13.60;99.90
17697;DHT22;8967;47.984;7.842;2023-05-16T05:26:32;13.60;99.90
17697;DHT22;8967;47.984;7.842;2023-05-16T05:28:59;13.60;99.90
17697;DHT22;8967;47.984;7.842;2023-05-16T05:31:25;13.60;99.90
17697;DHT22;8967;47.984;7.842;2023-05-16T05:33:52;13.60;99.90
17697;DHT22;8967;47.984;7.842;2023-05-16T05:36:21;13.60;99.90
17697;DHT22;8967;47.984;7.842;2023-05-16T05:38:50;13.60;99.90
17697;DHT22;8967;47.984;7.842;2023-05-16T05:41:21;13.60;99.90
17697;DHT22;8967;47.984;7.842;2023-05-16T05:43:50;13.60;99.90
17697;DHT22;8967;47.984;7.842;2023-05-16T05:46:17;13.50;99.90
17697;DHT22;8967;47.984;7.842;2023-05-16T05:48:46;13.50;99.90
17697;DHT22;8967;47.984;7.842;2023-05-16T05:51:13;13.50;99.90
17697;DHT22;8967;47.984;7.842;2023-05-16T05:53:40;13.50;99.90
17697;DHT22;8967;47.984;7.842;2023-05-16T05:56:09;13.60;99.90
17697;DHT22;8967;47.984;7.842;2023-05-16T05:58:38;13.50;99.90
17697;DHT22;8967;47.984;7.842;2023-05-16T06:01:06;13.50;99.90
17697;DHT22;8967;47.984;7.842;2023-05-16T06:03:33;13.50;99.90
17697;DHT22;8967;47.984;7.842;2023-05-16T06:06:00;13.50;99.90
17697;DHT22;8967;47.984;7.842;2023-05-16T06:08:27;13.50;99.90
17697;DHT22;8967;47.984;7.842;2023-05-16T06:10:54;13.50;99.90
17697;DHT22;8967;47.984;7.842;2023-05-16T06:13:23;13.40;99.90
17697;DHT22;8967;47.984;7.842;2023-05-16T06:15:52;13.40;99.90
17697;DHT22;8967;47.984;7.842;2023-05-16T06:18:19;13.40;99.90
17697;DHT22;8967;47.984;7.842;2023-05-16T06:20:46;13.30;99.90
17697;DHT22;8967;47.984;7.842;2023-05-16T06:23:13;13.30;99.90
17697;DHT22;8967;47.984;7.842;2023-05-16T06:25:40;13.30;99.90
17697;DHT22;8967;47.984;7.842;2023-05-16T06:28:07;13.30;99.90
17697;DHT22;8967;47.984;7.842;2023-05-16T06:30:34;13.30;99.90
17697;DHT22;8967;47.984;7.842;2023-05-16T06:33:04;13.30;99.90
17697;DHT22;8967;47.984;7.842;2023-05-16T06:35:31;13.30;99.90
17697;DHT22;8967;47.984;7.842;2023-05-16T06:37:58;13.30;99.90
17697;DHT22;8967;47.984;7.842;2023-05-16T06:40:25;13.30;99.90
17697;DHT22;8967;47.984;7.842;2023-05-16T06:42:52;13.30;99.90
17697;DHT22;8967;47.984;7.842;2023-05-16T06:45:19;13.30;99.90
17697;DHT22;8967;47.984;7.842;2023-05-16T06:47:46;13.30;99.90
17697;DHT22;8967;47.984;7.842;2023-05-16T06:50:14;13.20;99.90
17697;DHT22;8967;47.984;7.842;2023-05-16T06:52:41;13.20;99.90
17697;DHT22;8967;47.984;7.842;2023-05-16T06:55:08;13.20;99.90
17697;DHT22;8967;47.984;7.842;2023-05-16T06:57:36;13.20;99.90
17697;DHT22;8967;47.984;7.842;2023-05-16T07:00:04;13.20;99.90
17697;DHT22;8967;47.984;7.842;2023-05-16T07:02:31;13.20;99.90
17697;DHT22;8967;47.984;7.842;2023-05-16T07:04:58;13.10;99.90
17697;DHT22;8967;47.984;7.842;2023-05-16T07:07:27;13.10;99.90
17697;DHT22;8967;47.984;7.842;2023-05-16T07:09:54;13.10;99.90
17697;DHT22;8967;47.984;7.842;2023-05-16T07:12:20;13.10;99.90
17697;DHT22;8967;47.984;7.842;2023-05-16T07:14:47;13.10;99.90
17697;DHT22;8967;47.984;7.842;2023-05-16T07:17:14;13.00;99.90
17697;DHT22;8967;47.984;7.842;2023-05-16T07:19:41;13.00;99.90
17697;DHT22;8967;47.984;7.842;2023-05-16T07:22:08;13.00;99.90
17697;DHT22;8967;47.984;7.842;2023-05-16T07:24:37;13.00;99.90
17697;DHT22;8967;47.984;7.842;2023-05-16T07:27:04;13.00;99.90
17697;DHT22;8967;47.984;7.842;2023-05-16T07:29:31;13.00;99.90
17697;DHT22;8967;47.984;7.842;2023-05-16T07:32:00;13.00;99.90
17697;DHT22;8967;47.984;7.842;2023-05-16T07:34:27;13.00;99.90
17697;DHT22;8967;47.984;7.842;2023-05-16T07:36:54;13.00;99.90
17697;DHT22;8967;47.984;7.842;2023-05-16T07:39:21;13.00;99.90
17697;DHT22;8967;47.984;7.842;2023-05-16T07:41:49;13.00;99.90
17697;DHT22;8967;47.984;7.842;2023-05-16T07:44:16;13.00;99.90
17697;DHT22;8967;47.984;7.842;2023-05-16T07:46:43;13.10;99.90
17697;DHT22;8967;47.984;7.842;2023-05-16T07:49:10;13.00;99.90
17697;DHT22;8967;47.984;7.842;2023-05-16T07:51:37;13.00;99.90
17697;DHT22;8967;47.984;7.842;2023-05-16T07:54:04;13.00;99.90
17697;DHT22;8967;47.984;7.842;2023-05-16T07:56:31;13.00;99.90
17697;DHT22;8967;47.984;7.842;2023-05-16T07:58:59;12.90;99.90
17697;DHT22;8967;47.984;7.842;2023-05-16T08:01:26;12.90;99.90
17697;DHT22;8967;47.984;7.842;2023-05-16T08:03:53;12.90;99.90
17697;DHT22;8967;47.984;7.842;2023-05-16T08:06:20;12.80;99.90
17697;DHT22;8967;47.984;7.842;2023-05-16T08:08:47;12.90;99.90
17697;DHT22;8967;47.984;7.842;2023-05-16T08:11:14;12.80;99.90
17697;DHT22;8967;47.984;7.842;2023-05-16T08:13:41;12.90;99.90
17697;DHT22;8967;47.984;7.842;2023-05-16T08:16:09;12.90;99.90
17697;DHT22;8967;47.984;7.842;2023-05-16T08:18:36;12.80;99.90
17697;DHT22;8967;47.984;7.842;2023-05-16T08:21:03;12.80;99.90
17697;DHT22;8967;47.984;7.842;2023-05-16T08:23:30;12.80;99.90
17697;DHT22;8967;47.984;7.842;2023-05-16T08:25:57;12.90;99.90
17697;DHT22;8967;47.984;7.842;2023-05-16T08:28:24;12.80;99.90
17697;DHT22;8967;47.984;7.842;2023-05-16T08:30:51;12.80;99.90
17697;DHT22;8967;47.984;7.842;2023-05-16T08:33:19;12.90;99.90
17697;DHT22;8967;47.984;7.842;2023-05-16T08:35:46;12.90;99.90
17697;DHT22;8967;47.984;7.842;2023-05-16T08:38:14;12.90;99.90
17697;DHT22;8967;47.984;7.842;2023-05-16T08:40:41;12.90;99.90
17697;DHT22;8967;47.984;7.842;2023-05-16T08:43:08;12.90;99.90
17697;DHT22;8967;47.984;7.842;2023-05-16T08:45:35;12.90;99.90
17697;DHT22;8967;47.984;7.842;2023-05-16T08:48:04;12.90;99.90
17697;DHT22;8967;47.984;7.842;2023-05-16T08:50:33;12.90;99.90
17697;DHT22;8967;47.984;7.842;2023-05-16T08:53:04;12.90;99.90
17697;DHT22;8967;47.984;7.842;2023-05-16T08:55:32;12.90;99.90
17697;DHT22;8967;47.984;7.842;2023-05-16T08:58:00;12.90;99.90
17697;DHT22;8967;47.984;7.842;2023-05-16T09:00:27;12.90;99.90
17697;DHT22;8967;47.984;7.842;2023-05-16T09:02:54;12.90;99.90
17697;DHT22;8967;47.984;7.842;2023-05-16T09:05:22;12.90;99.90
17697;DHT22;8967;47.984;7.842;2023-05-16T09:07:53;12.90;99.90
17697;DHT22;8967;47.984;7.842;2023-05-16T09:10:20;13.00;99.90
17697;DHT22;8967;47.984;7.842;2023-05-16T09:12:47;12.90;99.90
17697;DHT22;8967;47.984;7.842;2023-05-16T09:15:16;12.90;99.90
17697;DHT22;8967;47.984;7.842;2023-05-16T09:17:44;12.90;99.90
17697;DHT22;8967;47.984;7.842;2023-05-16T09:20:14;12.90;99.90
17697;DHT22;8967;47.984;7.842;2023-05-16T09:22:50;12.90;99.90
17697;DHT22;8967;47.984;7.842;2023-05-16T09:25:19;12.90;99.90
17697;DHT22;8967;47.984;7.842;2023-05-16T09:27:46;12.90;99.90
17697;DHT22;8967;47.984;7.842;2023-05-16T09:30:14;12.90;99.90
17697;DHT22;8967;47.984;7.842;2023-05-16T09:32:42;12.90;99.90
17697;DHT22;8967;47.984;7.842;2023-05-16T09:35:10;12.90;99.90
17697;DHT22;8967;47.984;7.842;2023-05-16T09:37:43;12.80;99.90
17697;DHT22;8967;47.984;7.842;2023-05-16T09:40:11;12.90;99.90
17697;DHT22;8967;47.984;7.842;2023-05-16T09:42:40;12.90;99.90
17697;DHT22;8967;47.984;7.842;2023-05-16T09:45:11;12.80;99.90
17697;DHT22;8967;47.984;7.842;2023-05-16T09:47:39;12.80;99.90
17697;DHT22;8967;47.984;7.842;2023-05-16T09:50:12;12.80;99.90
17697;DHT22;8967;47.984;7.842;2023-05-16T09:52:39;12.80;99.90
17697;DHT22;8967;47.984;7.842;2023-05-16T09:55:07;12.80;99.90
17697;DHT22;8967;47.984;7.842;2023-05-16T09:57:36;12.80;99.90
17697;DHT22;8967;47.984;7.842;2023-05-16T10:00:06;12.80;99.90
17697;DHT22;8967;47.984;7.842;2023-05-16T10:02:37;12.80;99.90
17697;DHT22;8967;47.984;7.842;2023-05-16T10:05:04;12.80;99.90
17697;DHT22;8967;47.984;7.842;2023-05-16T10:07:31;12.80;99.90
17697;DHT22;8967;47.984;7.842;2023-05-16T10:10:00;12.80;99.90
17697;DHT22;8967;47.984;7.842;2023-05-16T10:12:32;12.80;99.90
17697;DHT22;8967;47.984;7.842;2023-05-16T10:15:03;12.80;99.90
17697;DHT22;8967;47.984;7.842;2023-05-16T10:17:34;12.80;99.90
17697;DHT22;8967;47.984;7.842;2023-05-16T10:20:05;12.80;99.90
17697;DHT22;8967;47.984;7.842;2023-05-16T10:22:34;12.80;99.90
17697;DHT22;8967;47.984;7.842;2023-05-16T10:25:07;12.80;99.90
17697;DHT22;8967;47.984;7.842;2023-05-16T10:27:39;12.80;99.90
17697;DHT22;8967;47.984;7.842;2023-05-16T10:30:07;12.90;99.90
17697;DHT22;8967;47.984;7.842;2023-05-16T10:32:37;12.80;99.90
17697;DHT22;8967;47.984;7.842;2023-05-16T10:35:07;12.90;99.90
17697;DHT22;8967;47.984;7.842;2023-05-16T10:37:35;12.90;99.90
17697;DHT22;8967;47.984;7.842;2023-05-16T10:40:03;12.80;99.90
17697;DHT22;8967;47.984;7.842;2023-05-16T10:42:32;12.80;99.90
17697;DHT22;8967;47.984;7.842;2023-05-16T10:45:16;12.90;99.90
17697;DHT22;8967;47.984;7.842;2023-05-16T10:47:52;12.90;99.90
17697;DHT22;8967;47.984;7.842;2023-05-16T10:50:36;12.90;99.90
17697;DHT22;8967;47.984;7.842;2023-05-16T10:53:13;12.90;99.90
17697;DHT22;8967;47.984;7.842;2023-05-16T10:55:44;12.90;99.90
17697;DHT22;8967;47.984;7.842;2023-05-16T10:58:18;13.00;99.90
17697;DHT22;8967;47.984;7.842;2023-05-16T11:00:48;12.90;99.90
17697;DHT22;8967;47.984;7.842;2023-05-16T11:03:22;13.00;99.90
17697;DHT22;8967;47.984;7.842;2023-05-16T11:05:52;12.90;99.90
17697;DHT22;8967;47.984;7.842;2023-05-16T11:08:19;12.90;99.90
17697;DHT22;8967;47.984;7.842;2023-05-16T11:10:46;12.90;99.90
17697;DHT22;8967;47.984;7.842;2023-05-16T11:13:13;12.90;99.90
17697;DHT22;8967;47.984;7.842;2023-05-16T11:15:44;12.90;99.90
17697;DHT22;8967;47.984;7.842;2023-05-16T11:18:14;12.90;99.90
17697;DHT22;8967;47.984;7.842;2023-05-16T11:20:43;12.90;99.90
17697;DHT22;8967;47.984;7.842;2023-05-16T11:23:20;12.90;99.90
17697;DHT22;8967;47.984;7.842;2023-05-16T11:25:50;12.90;99.90
17697;DHT22;8967;47.984;7.842;2023-05-16T11:28:17;12.90;99.90
17697;DHT22;8967;47.984;7.842;2023-05-16T11:30:47;13.00;99.90
17697;DHT22;8967;47.984;7.842;2023-05-16T11:33:15;12.90;99.90
17697;DHT22;8967;47.984;7.842;2023-05-16T11:35:44;12.90;99.90
17697;DHT22;8967;47.984;7.842;2023-05-16T11:38:26;12.90;99.90
17697;DHT22;8967;47.984;7.842;2023-05-16T11:41:01;12.90;99.90
17697;DHT22;8967;47.984;7.842;2023-05-16T11:43:28;12.90;99.90
17697;DHT22;8967;47.984;7.842;2023-05-16T11:45:59;12.90;99.90
17697;DHT22;8967;47.984;7.842;2023-05-16T11:48:26;12.90;99.90
17697;DHT22;8967;47.984;7.842;2023-05-16T11:50:54;12.90;99.90
17697;DHT22;8967;47.984;7.842;2023-05-16T11:53:23;12.90;99.90
17697;DHT22;8967;47.984;7.842;2023-05-16T11:55:50;12.90;99.90
17697;DHT22;8967;47.984;7.842;2023-05-16T11:58:18;12.90;99.90
17697;DHT22;8967;47.984;7.842;2023-05-16T12:00:49;12.80;99.90
17697;DHT22;8967;47.984;7.842;2023-05-16T12:03:17;12.80;99.90
17697;DHT22;8967;47.984;7.842;2023-05-16T12:05:49;12.80;99.90
17697;DHT22;8967;47.984;7.842;2023-05-16T12:08:19;12.80;99.90
17697;DHT22;8967;47.984;7.842;2023-05-16T12:10:48;12.90;99.90
17697;DHT22;8967;47.984;7.842;2023-05-16T12:13:17;12.80;99.90
17697;DHT22;8967;47.984;7.842;2023-05-16T12:15:46;12.90;99.90
17697;DHT22;8967;47.984;7.842;2023-05-16T12:18:14;12.80;99.90
17697;DHT22;8967;47.984;7.842;2023-05-16T12:20:42;12.80;99.90
17697;DHT22;8967;47.984;7.842;2023-05-16T12:23:10;12.80;99.90
17697;DHT22;8967;47.984;7.842;2023-05-16T12:25:44;12.80;99.90
17697;DHT22;8967;47.984;7.842;2023-05-16T12:28:14;12.80;99.90
17697;DHT22;8967;47.984;7.842;2023-05-16T12:30:44;12.70;99.90
17697;DHT22;8967;47.984;7.842;2023-05-16T12:33:13;12.70;99.90
17697;DHT22;8967;47.984;7.842;2023-05-16T12:35:44;12.70;99.90
17697;DHT22;8967;47.984;7.842;2023-05-16T12:38:13;12.70;99.90
17697;DHT22;8967;47.984;7.842;2023-05-16T12:40:43;12.70;99.90
17697;DHT22;8967;47.984;7.842;2023-05-16T12:43:13;12.70;99.90
17697;DHT22;8967;47.984;7.842;2023-05-16T12:45:41;12.70;99.90
17697;DHT22;8967;47.984;7.842;2023-05-16T12:48:12;12.70;99.90
17697;DHT22;8967;47.984;7.842;2023-05-16T12:50:39;12.70;99.90
17697;DHT22;8967;47.984;7.842;2023-05-16T12:53:11;12.70;99.90
17697;DHT22;8967;47.984;7.842;2023-05-16T12:55:38;12.70;99.90
17697;DHT22;8967;47.984;7.842;2023-05-16T12:58:07;12.60;99.90
17697;DHT22;8967;47.984;7.842;2023-05-16T13:00:34;12.60;99.90
17697;DHT22;8967;47.984;7.842;2023-05-16T13:03:02;12.60;99.90
17697;DHT22;8967;47.984;7.842;2023-05-16T13:05:29;12.60;99.90
17697;DHT22;8967;47.984;7.842;2023-05-16T13:07:56;12.60;99.90
17697;DHT22;8967;47.984;7.842;2023-05-16T13:10:23;12.60;99.90
17697;DHT22;8967;47.984;7.842;2023-05-16T13:12:50;12.60;99.90
17697;DHT22;8967;47.984;7.842;2023-05-16T13:15:19;12.60;99.90
17697;DHT22;8967;47.984;7.842;2023-05-16T13:17:46;12.50;99.90
17697;DHT22;8967;47.984;7.842;2023-05-16T13:20:13;12.50;99.90
17697;DHT22;8967;47.984;7.842;2023-05-16T13:22:41;12.50;99.90
17697;DHT22;8967;47.984;7.842;2023-05-16T13:25:11;12.50;99.90
17697;DHT22;8967;47.984;7.842;2023-05-16T13:27:37;12.50;99.90
17697;DHT22;8967;47.984;7.842;2023-05-16T13:30:06;12.50;99.90
17697;DHT22;8967;47.984;7.842;2023-05-16T13:32:36;12.40;99.90
17697;DHT22;8967;47.984;7.842;2023-05-16T13:35:03;12.40;99.90
17697;DHT22;8967;47.984;7.842;2023-05-16T13:37:31;12.40;99.90
17697;DHT22;8967;47.984;7.842;2023-05-16T13:40:00;12.40;99.90
17697;DHT22;8967;47.984;7.842;2023-05-16T13:42:27;12.50;99.90
17697;DHT22;8967;47.984;7.842;2023-05-16T13:44:54;12.50;99.90
17697;DHT22;8967;47.984;7.842;2023-05-16T13:47:21;12.40;99.90
17697;DHT22;8967;47.984;7.842;2023-05-16T13:49:49;12.40;99.90
17697;DHT22;8967;47.984;7.842;2023-05-16T13:52:16;12.40;99.90
17697;DHT22;8967;47.984;7.842;2023-05-16T13:54:45;12.40;99.90
17697;DHT22;8967;47.984;7.842;2023-05-16T13:57:14;12.40;99.90
17697;DHT22;8967;47.984;7.842;2023-05-16T13:59:41;12.40;99.90
17697;DHT22;8967;47.984;7.842;2023-05-16T14:02:08;12.30;99.90
17697;DHT22;8967;47.984;7.842;2023-05-16T14:04:35;12.30;99.90
17697;DHT22;8967;47.984;7.842;2023-05-16T14:07:04;12.30;99.90
17697;DHT22;8967;47.984;7.842;2023-05-16T14:09:31;12.30;99.90
17697;DHT22;8967;47.984;7.842;2023-05-16T14:12:02;12.30;99.90
17697;DHT22;8967;47.984;7.842;2023-05-16T14:14:29;12.30;99.90
17697;DHT22;8967;47.984;7.842;2023-05-16T14:16:56;12.30;99.90
17697;DHT22;8967;47.984;7.842;2023-05-16T14:19:23;12.20;99.90
17697;DHT22;8967;47.984;7.842;2023-05-16T14:21:50;12.30;99.90
17697;DHT22;8967;47.984;7.842;2023-05-16T14:24:19;12.30;99.90
17697;DHT22;8967;47.984;7.842;2023-05-16T14:26:45;12.30;99.90
17697;DHT22;8967;47.984;7.842;2023-05-16T14:29:12;12.30;99.90
17697;DHT22;8967;47.984;7.842;2023-05-16T14:31:39;12.20;99.90
17697;DHT22;8967;47.984;7.842;2023-05-16T14:34:06;12.20;99.90
17697;DHT22;8967;47.984;7.842;2023-05-16T14:36:33;12.20;99.90
17697;DHT22;8967;47.984;7.842;2023-05-16T14:39:00;12.30;99.90
17697;DHT22;8967;47.984;7.842;2023-05-16T14:41:30;12.20;99.90
17697;DHT22;8967;47.984;7.842;2023-05-16T14:43:59;12.30;99.90
17697;DHT22;8967;47.984;7.842;2023-05-16T14:46:26;12.30;99.90
17697;DHT22;8967;47.984;7.842;2023-05-16T14:48:56;12.30;99.90
17697;DHT22;8967;47.984;7.842;2023-05-16T14:51:22;12.30;99.90
17697;DHT22;8967;47.984;7.842;2023-05-16T14:53:49;12.30;99.90
17697;DHT22;8967;47.984;7.842;2023-05-16T14:56:16;12.20;99.90
17697;DHT22;8967;47.984;7.842;2023-05-16T14:58:44;12.30;99.90
17697;DHT22;8967;47.984;7.842;2023-05-16T15:01:11;12.30;99.90
17697;DHT22;8967;47.984;7.842;2023-05-16T15:03:39;12.30;99.90
17697;DHT22;8967;47.984;7.842;2023-05-16T15:06:08;12.30;99.90
17697;DHT22;8967;47.984;7.842;2023-05-16T15:08:35;12.30;99.90
17697;DHT22;8967;47.984;7.842;2023-05-16T15:11:03;12.20;99.90
17697;DHT22;8967;47.984;7.842;2023-05-16T15:13:29;12.20;99.90
17697;DHT22;8967;47.984;7.842;2023-05-16T15:15:58;12.20;99.90
17697;DHT22;8967;47.984;7.842;2023-05-16T15:18:25;12.20;99.90
17697;DHT22;8967;47.984;7.842;2023-05-16T15:20:51;12.20;99.90
17697;DHT22;8967;47.984;7.842;2023-05-16T15:23:18;12.20;99.90
17697;DHT22;8967;47.984;7.842;2023-05-16T15:25:46;12.20;99.90
17697;DHT22;8967;47.984;7.842;2023-05-16T15:28:12;12.20;99.90
17697;DHT22;8967;47.984;7.842;2023-05-16T15:30:39;12.20;99.90
17697;DHT22;8967;47.984;7.842;2023-05-16T15:33:07;12.20;99.90
17697;DHT22;8967;47.984;7.842;2023-05-16T15:35:34;12.20;99.90
17697;DHT22;8967;47.984;7.842;2023-05-16T15:38:01;12.20;99.90
17697;DHT22;8967;47.984;7.842;2023-05-16T15:40:28;12.20;99.90
17697;DHT22;8967;47.984;7.842;2023-05-16T15:42:55;12.20;99.90
17697;DHT22;8967;47.984;7.842;2023-05-16T15:45:22;12.20;99.90
17697;DHT22;8967;47.984;7.842;2023-05-16T15:47:49;12.10;99.90
17697;DHT22;8967;47.984;7.842;2023-05-16T15:50:20;12.00;99.90
17697;DHT22;8967;47.984;7.842;2023-05-16T15:52:47;12.10;99.90